sensor_id;sensor_type;location;lat;lon;timestamp;temperature;humidity
3300;DHT22;1662;49.310;8.134;2024-02-04T00:01:40;9.10;99.90
3300;DHT22;1662;49.310;8.134;2024-02-04T00:04:06;9.10;99.90
3300;DHT22;1662;49.310;8.134;2024-02-04T00:06:32;9.10;99.90
3300;DHT22;1662;49.310;8.134;2024-02-04T00:08:58;9.10;99.90
3300;DHT22;1662;49.310;8.134;2024-02-04T00:11:24;9.10;99.90
3300;DHT22;1662;49.310;8.134;2024-02-04T00:13:50;9.10;99.90
3300;DHT22;1662;49.310;8.134;2024-02-04T00:16:15;9.00;99.90
3300;DHT22;1662;49.310;8.134;2024-02-04T00:18:41;9.00;99.90
3300;DHT22;1662;49.310;8.134;2024-02-04T00:21:06;9.00;99.90
3300;DHT22;1662;49.310;8.134;2024-02-04T00:23:32;9.00;99.90
3300;DHT22;1662;49.310;8.134;2024-02-04T00:26:00;9.10;99.90
3300;DHT22;1662;49.310;8.134;2024-02-04T00:28:26;9.10;99.90
3300;DHT22;1662;49.310;8.134;2024-02-04T00:30:53;9.00;99.90
3300;DHT22;1662;49.310;8.134;2024-02-04T00:33:21;9.00;99.90
3300;DHT22;1662;49.310;8.134;2024-02-04T00:35:47;9.00;99.90
3300;DHT22;1662;49.310;8.134;2024-02-04T00:38:13;9.00;99.90
3300;DHT22;1662;49.310;8.134;2024-02-04T00:40:38;9.00;99.90
3300;DHT22;1662;49.310;8.134;2024-02-04T00:43:04;9.00;99.90
3300;DHT22;1662;49.310;8.134;2024-02-04T00:45:30;9.00;99.90
3300;DHT22;1662;49.310;8.134;2024-02-04T00:47:55;9.00;99.90
3300;DHT22;1662;49.310;8.134;2024-02-04T00:50:21;9.10;99.90
3300;DHT22;1662;49.310;8.134;2024-02-04T00:52:46;9.10;99.90
3300;DHT22;1662;49.310;8.134;2024-02-04T00:55:12;9.00;99.90
3300;DHT22;1662;49.310;8.134;2024-02-04T00:57:38;9.10;99.90
3300;DHT22;1662;49.310;8.134;2024-02-04T01:00:03;9.00;99.90
3300;DHT22;1662;49.310;8.134;2024-02-04T01:02:30;9.00;99.90
3300;DHT22;1662;49.310;8.134;2024-02-04T01:04:55;9.00;99.90
3300;DHT22;1662;49.310;8.134;2024-02-04T01:07:22;9.00;99.90
3300;DHT22;1662;49.310;8.134;2024-02-04T01:09:47;9.00;99.90
3300;DHT22;1662;49.310;8.134;2024-02-04T01:12:13;9.00;99.90
3300;DHT22;1662;49.310;8.134;2024-02-04T01:14:38;9.10;99.90
3300;DHT22;1662;49.310;8.134;2024-02-04T01:17:04;9.10;99.90
3300;DHT22;1662;49.310;8.134;2024-02-04T01:19:32;9.10;99.90
3300;DHT22;1662;49.310;8.134;2024-02-04T01:21:58;9.10;99.90
3300;DHT22;1662;49.310;8.134;2024-02-04T01:24:24;9.10;99.90
3300;DHT22;1662;49.310;8.134;2024-02-04T01:26:50;9.10;99.90
3300;DHT22;1662;49.310;8.134;2024-02-04T01:29:16;9.20;99.90
3300;DHT22;1662;49.310;8.134;2024-02-04T01:31:42;9.20;99.90
3300;DHT22;1662;49.310;8.134;2024-02-04T01:34:07;9.20;99.90
3300;DHT22;1662;49.310;8.134;2024-02-04T01:36:33;9.20;99.90
3300;DHT22;1662;49.310;8.134;2024-02-04T01:38:58;9.10;99.90
3300;DHT22;1662;49.310;8.134;2024-02-04T01:41:24;9.10;99.90
3300;DHT22;1662;49.310;8.134;2024-02-04T01:43:53;9.10;99.90
3300;DHT22;1662;49.310;8.134;2024-02-04T01:46:18;9.00;99.90
3300;DHT22;1662;49.310;8.134;2024-02-04T01:48:44;9.00;99.90
3300;DHT22;1662;49.310;8.134;2024-02-04T01:51:10;9.10;99.90
3300;DHT22;1662;49.310;8.134;2024-02-04T01:53:36;9.00;99.90
3300;DHT22;1662;49.310;8.134;2024-02-04T01:56:04;9.10;99.90
3300;DHT22;1662;49.310;8.134;2024-02-04T01:58:33;9.10;99.90
3300;DHT22;1662;49.310;8.134;2024-02-04T02:00:59;9.10;99.90
3300;DHT22;1662;49.310;8.134;2024-02-04T02:03:26;9.10;99.90
3300;DHT22;1662;49.310;8.134;2024-02-04T02:05:52;9.10;99.90
3300;DHT22;1662;49.310;8.134;2024-02-04T02:08:18;9.20;99.90
3300;DHT22;1662;49.310;8.134;2024-02-04T02:10:48;9.20;99.90
3300;DHT22;1662;49.310;8.134;2024-02-04T02:13:20;9.30;99.90
3300;DHT22;1662;49.310;8.134;2024-02-04T02:15:58;9.20;99.90
3300;DHT22;1662;49.310;8.134;2024-02-04T02:18:35;9.20;99.90
3300;DHT22;1662;49.310;8.134;2024-02-04T02:26:31;9.10;99.90
3300;DHT22;1662;49.310;8.134;2024-02-04T02:28:58;9.10;99.90
3300;DHT22;1662;49.310;8.134;2024-02-04T02:31:23;9.20;99.90
3300;DHT22;1662;49.310;8.134;2024-02-04T02:33:49;9.10;99.90
3300;DHT22;1662;49.310;8.134;2024-02-04T02:36:19;9.10;99.90
3300;DHT22;1662;49.310;8.134;2024-02-04T02:41:31;9.10;99.90
3300;DHT22;1662;49.310;8.134;2024-02-04T02:43:59;9.10;99.90
3300;DHT22;1662;49.310;8.134;2024-02-04T02:46:26;9.00;99.90
3300;DHT22;1662;49.310;8.134;2024-02-04T02:48:52;9.10;99.90
3300;DHT22;1662;49.310;8.134;2024-02-04T02:51:18;9.10;99.90
3300;DHT22;1662;49.310;8.134;2024-02-04T02:53:46;9.10;99.90
3300;DHT22;1662;49.310;8.134;2024-02-04T02:56:11;9.10;99.90
3300;DHT22;1662;49.310;8.134;2024-02-04T02:58:37;9.10;99.90
3300;DHT22;1662;49.310;8.134;2024-02-04T03:01:03;9.10;99.90
3300;DHT22;1662;49.310;8.134;2024-02-04T03:03:31;9.10;99.90
3300;DHT22;1662;49.310;8.134;2024-02-04T03:05:56;9.00;99.90
3300;DHT22;1662;49.310;8.134;2024-02-04T03:08:22;9.00;99.90
3300;DHT22;1662;49.310;8.134;2024-02-04T03:10:47;9.10;99.90
3300;DHT22;1662;49.310;8.134;2024-02-04T03:13:13;9.00;99.90
3300;DHT22;1662;49.310;8.134;2024-02-04T03:15:39;9.00;99.90
3300;DHT22;1662;49.310;8.134;2024-02-04T03:18:06;9.00;99.90
3300;DHT22;1662;49.310;8.134;2024-02-04T03:20:32;9.00;99.90
3300;DHT22;1662;49.310;8.134;2024-02-04T03:22:57;8.90;99.90
3300;DHT22;1662;49.310;8.134;2024-02-04T03:25:23;9.00;99.90
3300;DHT22;1662;49.310;8.134;2024-02-04T03:27:52;9.00;99.90
3300;DHT22;1662;49.310;8.134;2024-02-04T03:30:18;9.00;99.90
3300;DHT22;1662;49.310;8.134;2024-02-04T03:32:46;9.00;99.90
3300;DHT22;1662;49.310;8.134;2024-02-04T03:35:14;9.00;99.90
3300;DHT22;1662;49.310;8.134;2024-02-04T03:37:39;9.00;99.90
3300;DHT22;1662;49.310;8.134;2024-02-04T03:40:05;9.00;99.90
3300;DHT22;1662;49.310;8.134;2024-02-04T03:42:31;9.00;99.90
3300;DHT22;1662;49.310;8.134;2024-02-04T03:44:56;9.00;99.90
3300;DHT22;1662;49.310;8.134;2024-02-04T03:47:22;8.90;99.90
3300;DHT22;1662;49.310;8.134;2024-02-04T03:49:48;9.00;99.90
3300;DHT22;1662;49.310;8.134;2024-02-04T03:52:13;9.00;99.90
3300;DHT22;1662;49.310;8.134;2024-02-04T03:54:39;9.00;99.90
3300;DHT22;1662;49.310;8.134;2024-02-04T03:57:05;9.00;99.90
3300;DHT22;1662;49.310;8.134;2024-02-04T03:59:30;9.00;99.90
3300;DHT22;1662;49.310;8.134;2024-02-04T04:01:58;8.90;99.90
3300;DHT22;1662;49.310;8.134;2024-02-04T04:04:29;9.00;99.90
3300;DHT22;1662;49.310;8.134;2024-02-04T04:06:55;9.00;99.90
3300;DHT22;1662;49.310;8.134;2024-02-04T04:09:23;9.00;99.90
3300;DHT22;1662;49.310;8.134;2024-02-04T04:11:48;9.00;99.90
3300;DHT22;1662;49.310;8.134;2024-02-04T04:14:14;8.90;99.90
3300;DHT22;1662;49.310;8.134;2024-02-04T04:16:39;8.90;99.90
3300;DHT22;1662;49.310;8.134;2024-02-04T04:19:07;8.90;99.90
3300;DHT22;1662;49.310;8.134;2024-02-04T04:21:33;8.90;99.90
3300;DHT22;1662;49.310;8.134;2024-02-04T04:23:58;9.00;99.90
3300;DHT22;1662;49.310;8.134;2024-02-04T04:26:24;9.00;99.90
3300;DHT22;1662;49.310;8.134;2024-02-04T04:28:49;8.90;99.90
3300;DHT22;1662;49.310;8.134;2024-02-04T04:31:15;9.00;99.90
3300;DHT22;1662;49.310;8.134;2024-02-04T04:33:43;9.00;99.90
3300;DHT22;1662;49.310;8.134;2024-02-04T04:36:08;9.00;99.90
3300;DHT22;1662;49.310;8.134;2024-02-04T04:38:34;9.00;99.90
3300;DHT22;1662;49.310;8.134;2024-02-04T04:41:00;9.00;99.90
3300;DHT22;1662;49.310;8.134;2024-02-04T04:43:25;8.90;99.90
3300;DHT22;1662;49.310;8.134;2024-02-04T04:45:52;9.00;99.90
3300;DHT22;1662;49.310;8.134;2024-02-04T04:48:17;9.00;99.90
3300;DHT22;1662;49.310;8.134;2024-02-04T04:50:44;9.00;99.90
3300;DHT22;1662;49.310;8.134;2024-02-04T04:53:09;9.00;99.90
3300;DHT22;1662;49.310;8.134;2024-02-04T04:55:35;9.00;99.90
3300;DHT22;1662;49.310;8.134;2024-02-04T04:58:01;9.00;99.90
3300;DHT22;1662;49.310;8.134;2024-02-04T05:00:26;9.00;99.90
3300;DHT22;1662;49.310;8.134;2024-02-04T05:02:52;9.00;99.90
3300;DHT22;1662;49.310;8.134;2024-02-04T05:05:17;9.00;99.90
3300;DHT22;1662;49.310;8.134;2024-02-04T05:07:43;9.00;99.90
3300;DHT22;1662;49.310;8.134;2024-02-04T05:10:11;9.00;99.90
3300;DHT22;1662;49.310;8.134;2024-02-04T05:12:37;9.00;99.90
3300;DHT22;1662;49.310;8.134;2024-02-04T05:15:03;9.00;99.90
3300;DHT22;1662;49.310;8.134;2024-02-04T05:17:29;9.00;99.90
3300;DHT22;1662;49.310;8.134;2024-02-04T05:19:55;9.00;99.90
3300;DHT22;1662;49.310;8.134;2024-02-04T05:22:20;8.90;99.90
3300;DHT22;1662;49.310;8.134;2024-02-04T05:24:46;8.90;99.90
3300;DHT22;1662;49.310;8.134;2024-02-04T05:27:12;8.90;99.90
3300;DHT22;1662;49.310;8.134;2024-02-04T05:29:37;8.80;99.90
3300;DHT22;1662;49.310;8.134;2024-02-04T05:32:03;8.80;99.90
3300;DHT22;1662;49.310;8.134;2024-02-04T05:34:32;8.80;99.90
3300;DHT22;1662;49.310;8.134;2024-02-04T05:36:59;8.80;99.90
3300;DHT22;1662;49.310;8.134;2024-02-04T05:39:25;8.80;99.90
3300;DHT22;1662;49.310;8.134;2024-02-04T05:41:50;8.90;99.90
3300;DHT22;1662;49.310;8.134;2024-02-04T05:44:16;8.90;99.90
3300;DHT22;1662;49.310;8.134;2024-02-04T05:46:42;8.80;99.90
3300;DHT22;1662;49.310;8.134;2024-02-04T05:49:07;8.80;99.90
3300;DHT22;1662;49.310;8.134;2024-02-04T05:51:40;8.80;99.90
3300;DHT22;1662;49.310;8.134;2024-02-04T05:54:06;8.80;99.90
3300;DHT22;1662;49.310;8.134;2024-02-04T05:56:32;8.70;99.90
3300;DHT22;1662;49.310;8.134;2024-02-04T05:58:58;8.70;99.90
3300;DHT22;1662;49.310;8.134;2024-02-04T06:01:23;8.70;99.90
3300;DHT22;1662;49.310;8.134;2024-02-04T06:03:49;8.70;99.90
3300;DHT22;1662;49.310;8.134;2024-02-04T06:06:16;8.80;99.90
3300;DHT22;1662;49.310;8.134;2024-02-04T06:08:42;8.80;99.90
3300;DHT22;1662;49.310;8.134;2024-02-04T06:11:15;8.70;99.90
3300;DHT22;1662;49.310;8.134;2024-02-04T06:13:41;8.70;99.90
3300;DHT22;1662;49.310;8.134;2024-02-04T06:16:07;8.70;99.90
3300;DHT22;1662;49.310;8.134;2024-02-04T06:18:35;8.70;99.90
3300;DHT22;1662;49.310;8.134;2024-02-04T06:21:03;8.70;99.90
3300;DHT22;1662;49.310;8.134;2024-02-04T06:23:29;8.70;99.90
3300;DHT22;1662;49.310;8.134;2024-02-04T06:25:54;8.70;99.90
3300;DHT22;1662;49.310;8.134;2024-02-04T06:28:20;8.70;99.90
3300;DHT22;1662;49.310;8.134;2024-02-04T06:30:45;8.70;99.90
3300;DHT22;1662;49.310;8.134;2024-02-04T06:33:11;8.70;99.90
3300;DHT22;1662;49.310;8.134;2024-02-04T06:35:36;8.70;99.90
3300;DHT22;1662;49.310;8.134;2024-02-04T06:38:02;8.80;99.90
3300;DHT22;1662;49.310;8.134;2024-02-04T06:40:28;8.80;99.90
3300;DHT22;1662;49.310;8.134;2024-02-04T06:42:53;8.80;99.90
3300;DHT22;1662;49.310;8.134;2024-02-04T06:45:21;8.70;99.90
3300;DHT22;1662;49.310;8.134;2024-02-04T06:47:47;8.70;99.90
3300;DHT22;1662;49.310;8.134;2024-02-04T06:50:13;8.70;99.90
3300;DHT22;1662;49.310;8.134;2024-02-04T06:52:48;8.60;99.90
3300;DHT22;1662;49.310;8.134;2024-02-04T06:55:13;8.60;99.90
3300;DHT22;1662;49.310;8.134;2024-02-04T06:57:39;8.60;99.90
3300;DHT22;1662;49.310;8.134;2024-02-04T07:00:06;8.60;99.90
3300;DHT22;1662;49.310;8.134;2024-02-04T07:02:37;8.60;99.90
3300;DHT22;1662;49.310;8.134;2024-02-04T07:05:03;8.60;99.90
3300;DHT22;1662;49.310;8.134;2024-02-04T07:07:29;8.60;99.90
3300;DHT22;1662;49.310;8.134;2024-02-04T07:09:57;8.60;99.90
3300;DHT22;1662;49.310;8.134;2024-02-04T07:12:22;8.60;99.90
3300;DHT22;1662;49.310;8.134;2024-02-04T07:14:48;8.60;99.90
3300;DHT22;1662;49.310;8.134;2024-02-04T07:17:13;8.60;99.90
3300;DHT22;1662;49.310;8.134;2024-02-04T07:19:39;8.60;99.90
3300;DHT22;1662;49.310;8.134;2024-02-04T07:22:05;8.60;99.90
3300;DHT22;1662;49.310;8.134;2024-02-04T07:24:30;8.60;99.90
3300;DHT22;1662;49.310;8.134;2024-02-04T07:26:56;8.60;99.90
3300;DHT22;1662;49.310;8.134;2024-02-04T07:29:21;8.60;99.90
3300;DHT22;1662;49.310;8.134;2024-02-04T07:31:47;8.60;99.90
3300;DHT22;1662;49.310;8.134;2024-02-04T07:34:13;8.70;99.90
3300;DHT22;1662;49.310;8.134;2024-02-04T07:36:38;8.70;99.90
3300;DHT22;1662;49.310;8.134;2024-02-04T07:39:04;8.70;99.90
3300;DHT22;1662;49.310;8.134;2024-02-04T07:41:30;8.70;99.90
3300;DHT22;1662;49.310;8.134;2024-02-04T07:43:57;8.70;99.90
3300;DHT22;1662;49.310;8.134;2024-02-04T07:46:22;8.80;99.90
3300;DHT22;1662;49.310;8.134;2024-02-04T07:48:48;8.70;99.90
3300;DHT22;1662;49.310;8.134;2024-02-04T07:51:13;8.70;99.90
3300;DHT22;1662;49.310;8.134;2024-02-04T07:53:39;8.70;99.90
3300;DHT22;1662;49.310;8.134;2024-02-04T07:56:05;8.80;99.90
3300;DHT22;1662;49.310;8.134;2024-02-04T07:58:32;8.80;99.90
3300;DHT22;1662;49.310;8.134;2024-02-04T08:00:58;8.80;99.90
3300;DHT22;1662;49.310;8.134;2024-02-04T08:03:24;8.80;99.90
3300;DHT22;1662;49.310;8.134;2024-02-04T08:05:49;8.90;99.90
3300;DHT22;1662;49.310;8.134;2024-02-04T08:08:17;8.90;99.90
3300;DHT22;1662;49.310;8.134;2024-02-04T08:10:43;8.90;99.90
3300;DHT22;1662;49.310;8.134;2024-02-04T08:13:08;8.90;99.90
3300;DHT22;1662;49.310;8.134;2024-02-04T08:15:34;8.80;99.90
3300;DHT22;1662;49.310;8.134;2024-02-04T08:18:00;8.90;99.90
3300;DHT22;1662;49.310;8.134;2024-02-04T08:20:25;9.00;99.90
3300;DHT22;1662;49.310;8.134;2024-02-04T08:22:51;9.00;99.90
3300;DHT22;1662;49.310;8.134;2024-02-04T08:25:17;9.00;99.90
3300;DHT22;1662;49.310;8.134;2024-02-04T08:27:43;9.10;99.90
3300;DHT22;1662;49.310;8.134;2024-02-04T08:30:08;9.10;99.90
3300;DHT22;1662;49.310;8.134;2024-02-04T08:32:37;9.10;99.90
3300;DHT22;1662;49.310;8.134;2024-02-04T08:35:03;9.10;99.90
3300;DHT22;1662;49.310;8.134;2024-02-04T08:37:28;9.10;99.90
3300;DHT22;1662;49.310;8.134;2024-02-04T08:39:54;9.10;99.90
3300;DHT22;1662;49.310;8.134;2024-02-04T08:42:20;10.30;99.90
3300;DHT22;1662;49.310;8.134;2024-02-04T08:44:46;9.10;99.90
3300;DHT22;1662;49.310;8.134;2024-02-04T08:47:12;9.20;99.90
3300;DHT22;1662;49.310;8.134;2024-02-04T08:49:40;9.20;99.90
3300;DHT22;1662;49.310;8.134;2024-02-04T08:52:05;9.20;99.90
3300;DHT22;1662;49.310;8.134;2024-02-04T08:54:31;9.20;99.90
3300;DHT22;1662;49.310;8.134;2024-02-04T08:56:56;9.20;99.90
3300;DHT22;1662;49.310;8.134;2024-02-04T08:59:22;9.20;99.90
3300;DHT22;1662;49.310;8.134;2024-02-04T09:01:50;9.20;99.90
3300;DHT22;1662;49.310;8.134;2024-02-04T09:04:15;9.20;99.90
3300;DHT22;1662;49.310;8.134;2024-02-04T09:06:41;9.20;99.90
3300;DHT22;1662;49.310;8.134;2024-02-04T09:09:06;9.20;99.90
3300;DHT22;1662;49.310;8.134;2024-02-04T09:11:34;9.30;99.90
3300;DHT22;1662;49.310;8.134;2024-02-04T09:13:59;9.30;99.90
3300;DHT22;1662;49.310;8.134;2024-02-04T09:16:25;9.30;99.90
3300;DHT22;1662;49.310;8.134;2024-02-04T09:18:52;9.30;99.90
3300;DHT22;1662;49.310;8.134;2024-02-04T09:21:18;9.40;99.90
3300;DHT22;1662;49.310;8.134;2024-02-04T09:23:44;9.30;99.90
3300;DHT22;1662;49.310;8.134;2024-02-04T09:26:09;9.40;99.90
3300;DHT22;1662;49.310;8.134;2024-02-04T09:28:35;9.40;99.90
3300;DHT22;1662;49.310;8.134;2024-02-04T09:31:00;9.40;99.90
3300;DHT22;1662;49.310;8.134;2024-02-04T09:33:26;9.40;99.90
3300;DHT22;1662;49.310;8.134;2024-02-04T09:35:52;9.40;99.90
3300;DHT22;1662;49.310;8.134;2024-02-04T09:38:20;9.40;99.90
3300;DHT22;1662;49.310;8.134;2024-02-04T09:40:46;9.40;99.90
3300;DHT22;1662;49.310;8.134;2024-02-04T09:43:14;9.50;99.90
3300;DHT22;1662;49.310;8.134;2024-02-04T09:45:40;9.50;99.90
3300;DHT22;1662;49.310;8.134;2024-02-04T09:48:07;9.40;99.90
3300;DHT22;1662;49.310;8.134;2024-02-04T09:50:33;9.50;99.90
3300;DHT22;1662;49.310;8.134;2024-02-04T09:52:59;9.40;99.90
3300;DHT22;1662;49.310;8.134;2024-02-04T09:55:27;9.40;99.90
3300;DHT22;1662;49.310;8.134;2024-02-04T09:57:54;9.30;99.90
3300;DHT22;1662;49.310;8.134;2024-02-04T10:00:20;9.40;99.90
3300;DHT22;1662;49.310;8.134;2024-02-04T10:02:47;9.40;99.90
3300;DHT22;1662;49.310;8.134;2024-02-04T10:05:14;9.40;99.90
3300;DHT22;1662;49.310;8.134;2024-02-04T10:07:40;9.50;99.90
3300;DHT22;1662;49.310;8.134;2024-02-04T10:10:07;9.40;99.90
3300;DHT22;1662;49.310;8.134;2024-02-04T10:12:33;9.40;99.90
3300;DHT22;1662;49.310;8.134;2024-02-04T10:15:01;9.40;99.90
3300;DHT22;1662;49.310;8.134;2024-02-04T10:17:27;9.50;99.90
3300;DHT22;1662;49.310;8.134;2024-02-04T10:19:55;9.50;99.90
3300;DHT22;1662;49.310;8.134;2024-02-04T10:22:21;9.60;99.90
3300;DHT22;1662;49.310;8.134;2024-02-04T10:24:47;9.60;99.90
3300;DHT22;1662;49.310;8.134;2024-02-04T10:27:15;9.60;99.90
3300;DHT22;1662;49.310;8.134;2024-02-04T10:29:40;9.70;99.90
3300;DHT22;1662;49.310;8.134;2024-02-04T10:32:06;9.60;99.90
3300;DHT22;1662;49.310;8.134;2024-02-04T10:34:32;9.70;99.90
3300;DHT22;1662;49.310;8.134;2024-02-04T10:37:01;9.70;99.90
3300;DHT22;1662;49.310;8.134;2024-02-04T10:39:27;9.80;99.90
3300;DHT22;1662;49.310;8.134;2024-02-04T10:41:53;10.00;99.90
3300;DHT22;1662;49.310;8.134;2024-02-04T10:44:23;10.10;99.90
3300;DHT22;1662;49.310;8.134;2024-02-04T10:46:50;10.10;99.90
3300;DHT22;1662;49.310;8.134;2024-02-04T10:49:18;10.20;99.90
3300;DHT22;1662;49.310;8.134;2024-02-04T10:51:45;10.20;99.90
3300;DHT22;1662;49.310;8.134;2024-02-04T10:54:14;10.30;99.90
3300;DHT22;1662;49.310;8.134;2024-02-04T10:56:45;10.30;99.90
3300;DHT22;1662;49.310;8.134;2024-02-04T10:59:13;10.30;99.90
3300;DHT22;1662;49.310;8.134;2024-02-04T11:01:43;10.50;99.90
3300;DHT22;1662;49.310;8.134;2024-02-04T11:04:10;10.50;99.90
3300;DHT22;1662;49.310;8.134;2024-02-04T11:06:40;10.40;99.90
3300;DHT22;1662;49.310;8.134;2024-02-04T11:09:06;10.50;99.90
3300;DHT22;1662;49.310;8.134;2024-02-04T11:11:34;10.60;99.90
3300;DHT22;1662;49.310;8.134;2024-02-04T11:14:02;10.70;99.90
3300;DHT22;1662;49.310;8.134;2024-02-04T11:27:29;10.90;99.90
3300;DHT22;1662;49.310;8.134;2024-02-04T11:29:55;10.90;99.90
3300;DHT22;1662;49.310;8.134;2024-02-04T11:32:23;11.00;99.90
3300;DHT22;1662;49.310;8.134;2024-02-04T11:34:51;11.00;99.90
3300;DHT22;1662;49.310;8.134;2024-02-04T11:37:18;11.00;99.90
3300;DHT22;1662;49.310;8.134;2024-02-04T11:39:54;11.00;99.90
3300;DHT22;1662;49.310;8.134;2024-02-04T11:42:23;11.00;99.90
3300;DHT22;1662;49.310;8.134;2024-02-04T11:44:49;11.00;99.90
3300;DHT22;1662;49.310;8.134;2024-02-04T11:47:27;11.10;99.90
3300;DHT22;1662;49.310;8.134;2024-02-04T11:49:58;11.00;99.90
3300;DHT22;1662;49.310;8.134;2024-02-04T11:52:27;11.10;99.90
3300;DHT22;1662;49.310;8.134;2024-02-04T11:54:53;11.10;99.90
3300;DHT22;1662;49.310;8.134;2024-02-04T11:57:19;11.20;99.90
3300;DHT22;1662;49.310;8.134;2024-02-04T11:59:46;11.10;99.90
3300;DHT22;1662;49.310;8.134;2024-02-04T12:02:14;11.20;99.90
3300;DHT22;1662;49.310;8.134;2024-02-04T12:04:41;11.10;99.90
3300;DHT22;1662;49.310;8.134;2024-02-04T12:07:08;11.10;99.90
3300;DHT22;1662;49.310;8.134;2024-02-04T12:09:35;11.20;99.90
3300;DHT22;1662;49.310;8.134;2024-02-04T12:12:02;11.10;99.90
3300;DHT22;1662;49.310;8.134;2024-02-04T12:14:28;11.20;99.90
3300;DHT22;1662;49.310;8.134;2024-02-04T12:16:58;11.20;99.90
3300;DHT22;1662;49.310;8.134;2024-02-04T12:19:24;11.30;99.90
3300;DHT22;1662;49.310;8.134;2024-02-04T12:21:50;11.30;99.90
3300;DHT22;1662;49.310;8.134;2024-02-04T12:24:16;11.40;99.90
3300;DHT22;1662;49.310;8.134;2024-02-04T12:26:42;11.40;99.90
3300;DHT22;1662;49.310;8.134;2024-02-04T12:29:10;11.30;99.90
3300;DHT22;1662;49.310;8.134;2024-02-04T12:31:37;11.40;99.90
3300;DHT22;1662;49.310;8.134;2024-02-04T12:34:02;11.30;99.90
3300;DHT22;1662;49.310;8.134;2024-02-04T12:36:31;11.30;99.90
3300;DHT22;1662;49.310;8.134;2024-02-04T12:39:01;11.40;99.90
3300;DHT22;1662;49.310;8.134;2024-02-04T12:41:28;11.40;99.90
3300;DHT22;1662;49.310;8.134;2024-02-04T12:43:56;11.40;99.90
3300;DHT22;1662;49.310;8.134;2024-02-04T12:46:26;11.40;99.90
3300;DHT22;1662;49.310;8.134;2024-02-04T12:48:57;11.40;99.90
3300;DHT22;1662;49.310;8.134;2024-02-04T12:51:32;11.20;99.90
3300;DHT22;1662;49.310;8.134;2024-02-04T12:56:50;11.00;99.90
3300;DHT22;1662;49.310;8.134;2024-02-04T12:59:28;11.00;99.90
3300;DHT22;1662;49.310;8.134;2024-02-04T13:01:58;11.10;99.90
3300;DHT22;1662;49.310;8.134;2024-02-04T13:04:26;11.00;99.90
3300;DHT22;1662;49.310;8.134;2024-02-04T13:06:52;11.00;99.90
3300;DHT22;1662;49.310;8.134;2024-02-04T13:09:18;11.00;99.90
3300;DHT22;1662;49.310;8.134;2024-02-04T13:11:44;11.00;99.90
3300;DHT22;1662;49.310;8.134;2024-02-04T13:14:10;11.00;99.90
3300;DHT22;1662;49.310;8.134;2024-02-04T13:16:37;10.90;99.90
3300;DHT22;1662;49.310;8.134;2024-02-04T13:19:03;11.00;99.90
3300;DHT22;1662;49.310;8.134;2024-02-04T13:21:29;11.00;99.90
3300;DHT22;1662;49.310;8.134;2024-02-04T13:23:55;11.00;99.90
3300;DHT22;1662;49.310;8.134;2024-02-04T13:26:20;11.00;99.90
3300;DHT22;1662;49.310;8.134;2024-02-04T13:28:46;11.00;99.90
3300;DHT22;1662;49.310;8.134;2024-02-04T13:31:12;11.00;99.90
3300;DHT22;1662;49.310;8.134;2024-02-04T13:33:41;10.90;99.90
3300;DHT22;1662;49.310;8.134;2024-02-04T13:36:07;10.80;99.90
3300;DHT22;1662;49.310;8.134;2024-02-04T13:38:34;10.80;99.90
3300;DHT22;1662;49.310;8.134;2024-02-04T13:41:00;10.90;99.90
3300;DHT22;1662;49.310;8.134;2024-02-04T13:43:28;11.00;99.90
3300;DHT22;1662;49.310;8.134;2024-02-04T13:45:53;11.10;99.90
3300;DHT22;1662;49.310;8.134;2024-02-04T13:48:19;11.10;99.90
3300;DHT22;1662;49.310;8.134;2024-02-04T13:50:47;11.10;99.90
3300;DHT22;1662;49.310;8.134;2024-02-04T13:53:13;11.10;99.90
3300;DHT22;1662;49.310;8.134;2024-02-04T13:55:39;11.00;99.90
3300;DHT22;1662;49.310;8.134;2024-02-04T13:58:04;11.00;99.90
3300;DHT22;1662;49.310;8.134;2024-02-04T14:00:32;11.00;99.90
3300;DHT22;1662;49.310;8.134;2024-02-04T14:02:58;10.80;99.90
3300;DHT22;1662;49.310;8.134;2024-02-04T14:05:24;10.90;99.90
3300;DHT22;1662;49.310;8.134;2024-02-04T14:07:51;10.90;99.90
3300;DHT22;1662;49.310;8.134;2024-02-04T14:10:20;10.90;99.90
3300;DHT22;1662;49.310;8.134;2024-02-04T14:12:46;11.00;99.90
3300;DHT22;1662;49.310;8.134;2024-02-04T14:15:11;11.00;99.90
3300;DHT22;1662;49.310;8.134;2024-02-04T14:17:38;11.00;99.90
3300;DHT22;1662;49.310;8.134;2024-02-04T14:20:05;11.00;99.90
3300;DHT22;1662;49.310;8.134;2024-02-04T14:22:31;10.90;99.90
3300;DHT22;1662;49.310;8.134;2024-02-04T14:24:57;11.00;99.90
3300;DHT22;1662;49.310;8.134;2024-02-04T14:27:23;10.90;99.90
3300;DHT22;1662;49.310;8.134;2024-02-04T14:29:49;11.00;99.90
3300;DHT22;1662;49.310;8.134;2024-02-04T14:32:14;10.90;99.90
3300;DHT22;1662;49.310;8.134;2024-02-04T14:34:40;10.90;99.90
3300;DHT22;1662;49.310;8.134;2024-02-04T14:37:06;10.90;99.90
3300;DHT22;1662;49.310;8.134;2024-02-04T14:39:32;10.90;99.90
3300;DHT22;1662;49.310;8.134;2024-02-04T14:41:58;10.80;99.90
3300;DHT22;1662;49.310;8.134;2024-02-04T14:44:23;10.80;99.90
3300;DHT22;1662;49.310;8.134;2024-02-04T14:46:49;10.80;99.90
3300;DHT22;1662;49.310;8.134;2024-02-04T14:49:15;10.80;99.90
3300;DHT22;1662;49.310;8.134;2024-02-04T14:51:41;10.70;99.90
3300;DHT22;1662;49.310;8.134;2024-02-04T14:54:07;10.60;99.90
3300;DHT22;1662;49.310;8.134;2024-02-04T14:56:39;10.70;99.90
3300;DHT22;1662;49.310;8.134;2024-02-04T14:59:06;10.70;99.90
3300;DHT22;1662;49.310;8.134;2024-02-04T15:01:33;10.60;99.90
3300;DHT22;1662;49.310;8.134;2024-02-04T15:03:58;10.60;99.90
3300;DHT22;1662;49.310;8.134;2024-02-04T15:06:24;10.50;99.90
3300;DHT22;1662;49.310;8.134;2024-02-04T15:08:50;10.50;99.90
3300;DHT22;1662;49.310;8.134;2024-02-04T15:11:15;10.60;99.90
3300;DHT22;1662;49.310;8.134;2024-02-04T15:13:41;10.50;99.90
3300;DHT22;1662;49.310;8.134;2024-02-04T15:16:07;10.60;99.90
3300;DHT22;1662;49.310;8.134;2024-02-04T15:18:34;10.60;99.90
3300;DHT22;1662;49.310;8.134;2024-02-04T15:21:01;10.50;99.90
3300;DHT22;1662;49.310;8.134;2024-02-04T15:23:29;10.50;99.90
3300;DHT22;1662;49.310;8.134;2024-02-04T15:25:55;10.50;99.90
3300;DHT22;1662;49.310;8.134;2024-02-04T15:28:23;10.40;99.90
3300;DHT22;1662;49.310;8.134;2024-02-04T15:30:52;10.40;99.90
3300;DHT22;1662;49.310;8.134;2024-02-04T15:33:18;10.40;99.90
3300;DHT22;1662;49.310;8.134;2024-02-04T15:35:44;10.40;99.90
3300;DHT22;1662;49.310;8.134;2024-02-04T15:38:09;10.40;99.90
3300;DHT22;1662;49.310;8.134;2024-02-04T15:40:35;10.40;99.90
3300;DHT22;1662;49.310;8.134;2024-02-04T15:43:03;10.40;99.90
3300;DHT22;1662;49.310;8.134;2024-02-04T15:45:30;10.30;99.90
3300;DHT22;1662;49.310;8.134;2024-02-04T15:47:55;10.30;99.90
3300;DHT22;1662;49.310;8.134;2024-02-04T15:50:23;10.20;99.90
3300;DHT22;1662;49.310;8.134;2024-02-04T15:52:49;10.30;99.90
3300;DHT22;1662;49.310;8.134;2024-02-04T15:55:16;10.30;99.90
3300;DHT22;1662;49.310;8.134;2024-02-04T15:57:48;10.30;99.90
3300;DHT22;1662;49.310;8.134;2024-02-04T16:00:15;10.40;99.90
3300;DHT22;1662;49.310;8.134;2024-02-04T16:02:49;10.30;99.90
3300;DHT22;1662;49.310;8.134;2024-02-04T16:05:18;10.30;99.90
3300;DHT22;1662;49.310;8.134;2024-02-04T16:07:44;10.30;99.90
3300;DHT22;1662;49.310;8.134;2024-02-04T16:10:11;10.30;99.90
3300;DHT22;1662;49.310;8.134;2024-02-04T16:12:37;10.20;99.90
3300;DHT22;1662;49.310;8.134;2024-02-04T16:15:04;10.20;99.90
3300;DHT22;1662;49.310;8.134;2024-02-04T16:17:37;10.10;99.90
3300;DHT22;1662;49.310;8.134;2024-02-04T16:20:05;10.20;99.90
3300;DHT22;1662;49.310;8.134;2024-02-04T16:22:31;10.30;99.90
3300;DHT22;1662;49.310;8.134;2024-02-04T16:24:56;10.20;99.90
3300;DHT22;1662;49.310;8.134;2024-02-04T16:27:25;10.20;99.90
3300;DHT22;1662;49.310;8.134;2024-02-04T16:29:51;10.10;99.90